sensor_id;sensor_type;location;lat;lon;timestamp;pressure;altitude;pressure_sealevel;temperature;humidity
37904;BME280;23738;50.422;18.758;2023-02-15T00:02:03;100171.71;;;3.51;81.03
37904;BME280;23738;50.422;18.758;2023-02-15T00:04:30;100168.12;;;3.53;81.08
37904;BME280;23738;50.422;18.758;2023-02-15T00:07:13;100169.91;;;3.52;81.05
37904;BME280;23738;50.422;18.758;2023-02-15T00:09:40;100171.71;;;3.49;81.09
37904;BME280;23738;50.422;18.758;2023-02-15T00:12:09;100171.91;;;3.49;81.17
37904;BME280;23738;50.422;18.758;2023-02-15T00:14:36;100167.28;;;3.45;81.10
37904;BME280;23738;50.422;18.758;2023-02-15T00:17:04;100166.77;;;3.45;81.01
37904;BME280;23738;50.422;18.758;2023-02-15T00:19:31;100167.31;;;3.40;81.03
37904;BME280;23738;50.422;18.758;2023-02-15T00:21:59;100168.95;;;3.39;81.16
37904;BME280;23738;50.422;18.758;2023-02-15T00:24:27;100159.36;;;3.37;81.19
37904;BME280;23738;50.422;18.758;2023-02-15T00:26:55;100160.73;;;3.44;81.21
37904;BME280;23738;50.422;18.758;2023-02-15T00:29:22;100154.20;;;3.46;81.05
37904;BME280;23738;50.422;18.758;2023-02-15T00:31:49;100146.15;;;3.43;81.20
37904;BME280;23738;50.422;18.758;2023-02-15T00:34:19;100145.92;;;3.42;80.98
37904;BME280;23738;50.422;18.758;2023-02-15T00:36:47;100142.81;;;3.40;81.11
37904;BME280;23738;50.422;18.758;2023-02-15T00:39:15;100146.41;;;3.38;81.27
37904;BME280;23738;50.422;18.758;2023-02-15T00:41:44;100147.91;;;3.39;81.11
37904;BME280;23738;50.422;18.758;2023-02-15T00:44:14;100138.89;;;3.36;81.10
37904;BME280;23738;50.422;18.758;2023-02-15T00:46:41;100132.13;;;3.31;81.18
37904;BME280;23738;50.422;18.758;2023-02-15T00:49:27;100137.61;;;3.32;81.04
37904;BME280;23738;50.422;18.758;2023-02-15T00:51:54;100130.19;;;3.34;81.15
37904;BME280;23738;50.422;18.758;2023-02-15T00:54:22;100129.05;;;3.37;81.00
37904;BME280;23738;50.422;18.758;2023-02-15T00:56:49;100127.55;;;3.41;80.97
37904;BME280;23738;50.422;18.758;2023-02-15T00:59:17;100116.19;;;3.39;81.12
37904;BME280;23738;50.422;18.758;2023-02-15T01:01:44;100124.59;;;3.41;81.11
37904;BME280;23738;50.422;18.758;2023-02-15T01:04:12;100121.00;;;3.33;80.85
37904;BME280;23738;50.422;18.758;2023-02-15T01:06:39;100127.80;;;3.33;80.85
37904;BME280;23738;50.422;18.758;2023-02-15T01:09:07;100123.95;;;3.27;81.00
37904;BME280;23738;50.422;18.758;2023-02-15T01:11:34;100111.65;;;3.21;80.82
37904;BME280;23738;50.422;18.758;2023-02-15T01:14:01;100112.11;;;3.22;80.89
37904;BME280;23738;50.422;18.758;2023-02-15T01:16:30;100113.77;;;3.20;80.92
37904;BME280;23738;50.422;18.758;2023-02-15T01:18:57;100111.48;;;3.16;80.63
37904;BME280;23738;50.422;18.758;2023-02-15T01:21:26;100117.79;;;3.14;80.76
37904;BME280;23738;50.422;18.758;2023-02-15T01:23:53;100108.33;;;3.10;80.81
37904;BME280;23738;50.422;18.758;2023-02-15T01:26:20;100103.23;;;3.08;80.62
37904;BME280;23738;50.422;18.758;2023-02-15T01:28:48;100092.56;;;3.01;80.75
37904;BME280;23738;50.422;18.758;2023-02-15T01:31:17;100095.98;;;3.00;80.70
37904;BME280;23738;50.422;18.758;2023-02-15T01:34:09;100094.16;;;2.96;80.79
37904;BME280;23738;50.422;18.758;2023-02-15T01:36:37;100089.71;;;2.91;80.77
37904;BME280;23738;50.422;18.758;2023-02-15T01:39:24;100093.79;;;2.92;80.62
37904;BME280;23738;50.422;18.758;2023-02-15T01:42:44;100079.20;;;2.92;80.70
37904;BME280;23738;50.422;18.758;2023-02-15T01:45:23;100073.27;;;2.89;80.56
37904;BME280;23738;50.422;18.758;2023-02-15T01:48:20;100067.54;;;2.85;80.69
37904;BME280;23738;50.422;18.758;2023-02-15T01:51:07;100071.67;;;2.80;80.82
37904;BME280;23738;50.422;18.758;2023-02-15T01:53:37;100073.52;;;2.75;80.61
37904;BME280;23738;50.422;18.758;2023-02-15T01:56:09;100058.77;;;2.65;80.66
37904;BME280;23738;50.422;18.758;2023-02-15T01:58:38;100056.09;;;2.61;80.63
37904;BME280;23738;50.422;18.758;2023-02-15T02:01:08;100055.46;;;2.55;80.66
37904;BME280;23738;50.422;18.758;2023-02-15T02:03:43;100059.37;;;2.54;80.92
37904;BME280;23738;50.422;18.758;2023-02-15T02:06:15;100054.75;;;2.60;80.86
37904;BME280;23738;50.422;18.758;2023-02-15T02:08:43;100046.86;;;2.61;81.00
37904;BME280;23738;50.422;18.758;2023-02-15T02:11:11;100042.94;;;2.60;80.76
37904;BME280;23738;50.422;18.758;2023-02-15T02:13:42;100044.85;;;2.57;80.65
37904;BME280;23738;50.422;18.758;2023-02-15T02:16:32;100039.79;;;2.53;80.77
37904;BME280;23738;50.422;18.758;2023-02-15T02:19:18;100040.67;;;2.46;80.69
37904;BME280;23738;50.422;18.758;2023-02-15T02:22:34;100040.43;;;2.42;80.70
37904;BME280;23738;50.422;18.758;2023-02-15T02:26:17;100035.83;;;2.39;80.73
37904;BME280;23738;50.422;18.758;2023-02-15T02:29:52;100034.02;;;2.37;80.33
37904;BME280;23738;50.422;18.758;2023-02-15T02:35:48;100026.35;;;2.37;80.88
37904;BME280;23738;50.422;18.758;2023-02-15T02:38:23;100021.70;;;2.34;80.82
37904;BME280;23738;50.422;18.758;2023-02-15T02:40:59;100018.78;;;2.31;80.68
37904;BME280;23738;50.422;18.758;2023-02-15T02:43:35;100018.95;;;2.29;80.69
37904;BME280;23738;50.422;18.758;2023-02-15T02:46:08;100013.52;;;2.25;80.86
37904;BME280;23738;50.422;18.758;2023-02-15T02:48:40;100009.34;;;2.25;80.76
37904;BME280;23738;50.422;18.758;2023-02-15T02:55:18;100007.13;;;2.26;80.88
37904;BME280;23738;50.422;18.758;2023-02-15T02:58:09;100005.86;;;2.29;80.61
37904;BME280;23738;50.422;18.758;2023-02-15T03:01:16;100006.08;;;2.26;80.81
37904;BME280;23738;50.422;18.758;2023-02-15T03:03:49;100005.65;;;2.23;81.04
37904;BME280;23738;50.422;18.758;2023-02-15T03:06:20;99999.02;;;2.18;80.93
37904;BME280;23738;50.422;18.758;2023-02-15T03:08:53;99996.14;;;2.13;80.76
37904;BME280;23738;50.422;18.758;2023-02-15T03:11:23;100005.70;;;2.13;81.01
37904;BME280;23738;50.422;18.758;2023-02-15T03:13:51;100004.79;;;2.13;80.74
37904;BME280;23738;50.422;18.758;2023-02-15T03:16:19;100005.45;;;2.16;80.88
37904;BME280;23738;50.422;18.758;2023-02-15T03:18:57;99999.17;;;2.19;80.99
37904;BME280;23738;50.422;18.758;2023-02-15T03:21:33;99996.05;;;2.21;81.06
37904;BME280;23738;50.422;18.758;2023-02-15T03:24:07;100000.61;;;2.25;81.00
37904;BME280;23738;50.422;18.758;2023-02-15T03:26:36;100004.11;;;2.23;81.18
37904;BME280;23738;50.422;18.758;2023-02-15T03:29:26;100005.00;;;2.20;80.94
37904;BME280;23738;50.422;18.758;2023-02-15T03:31:58;100005.23;;;2.14;80.86
37904;BME280;23738;50.422;18.758;2023-02-15T03:34:27;100005.02;;;2.13;81.38
37904;BME280;23738;50.422;18.758;2023-02-15T03:37:00;100012.28;;;2.15;81.18
37904;BME280;23738;50.422;18.758;2023-02-15T03:39:33;100004.92;;;2.16;81.04
37904;BME280;23738;50.422;18.758;2023-02-15T03:42:08;100007.02;;;2.21;81.21
37904;BME280;23738;50.422;18.758;2023-02-15T03:44:59;100008.83;;;2.22;81.30
37904;BME280;23738;50.422;18.758;2023-02-15T03:47:32;100003.56;;;2.23;81.25
37904;BME280;23738;50.422;18.758;2023-02-15T03:50:04;100006.13;;;2.21;81.24
37904;BME280;23738;50.422;18.758;2023-02-15T03:52:54;100013.39;;;2.22;81.41
37904;BME280;23738;50.422;18.758;2023-02-15T03:55:23;100011.10;;;2.17;81.17
37904;BME280;23738;50.422;18.758;2023-02-15T03:57:50;100014.16;;;2.16;81.14
37904;BME280;23738;50.422;18.758;2023-02-15T04:00:57;100011.82;;;2.17;81.47
37904;BME280;23738;50.422;18.758;2023-02-15T04:04:09;100008.34;;;2.19;81.22
37904;BME280;23738;50.422;18.758;2023-02-15T04:06:39;100012.48;;;2.20;81.32
37904;BME280;23738;50.422;18.758;2023-02-15T04:09:52;100010.81;;;2.23;81.55
37904;BME280;23738;50.422;18.758;2023-02-15T04:12:38;100015.98;;;2.27;81.58
37904;BME280;23738;50.422;18.758;2023-02-15T04:15:26;100013.95;;;2.28;81.56
37904;BME280;23738;50.422;18.758;2023-02-15T04:19:12;100017.80;;;2.28;81.56
37904;BME280;23738;50.422;18.758;2023-02-15T04:22:37;100016.58;;;2.30;81.62
37904;BME280;23738;50.422;18.758;2023-02-15T04:25:43;100011.27;;;2.34;81.83
37904;BME280;23738;50.422;18.758;2023-02-15T04:28:10;100011.02;;;2.38;81.85
37904;BME280;23738;50.422;18.758;2023-02-15T04:30:38;100011.58;;;2.32;81.54
37904;BME280;23738;50.422;18.758;2023-02-15T04:33:05;100007.84;;;2.31;81.59
37904;BME280;23738;50.422;18.758;2023-02-15T04:35:32;100013.44;;;2.30;81.61
37904;BME280;23738;50.422;18.758;2023-02-15T04:38:00;100013.21;;;2.29;81.67
37904;BME280;23738;50.422;18.758;2023-02-15T04:40:28;100009.20;;;2.29;81.74
37904;BME280;23738;50.422;18.758;2023-02-15T04:43:16;100008.39;;;2.28;81.48
37904;BME280;23738;50.422;18.758;2023-02-15T04:45:48;100012.83;;;2.35;81.84
37904;BME280;23738;50.422;18.758;2023-02-15T04:48:17;100015.10;;;2.39;81.77
37904;BME280;23738;50.422;18.758;2023-02-15T04:51:05;100018.63;;;2.43;81.91
37904;BME280;23738;50.422;18.758;2023-02-15T04:54:14;100010.23;;;2.39;81.87
37904;BME280;23738;50.422;18.758;2023-02-15T04:57:02;100013.83;;;2.38;82.04
37904;BME280;23738;50.422;18.758;2023-02-15T05:00:11;100013.17;;;2.34;81.98
37904;BME280;23738;50.422;18.758;2023-02-15T05:02:40;100011.02;;;2.35;81.94
37904;BME280;23738;50.422;18.758;2023-02-15T05:05:40;100000.86;;;2.32;81.91
37904;BME280;23738;50.422;18.758;2023-02-15T05:08:27;100012.73;;;2.40;81.94
37904;BME280;23738;50.422;18.758;2023-02-15T05:11:14;100009.09;;;2.38;81.83
37904;BME280;23738;50.422;18.758;2023-02-15T05:14:20;100007.40;;;2.35;81.83
37904;BME280;23738;50.422;18.758;2023-02-15T05:17:08;100004.20;;;2.31;82.19
37904;BME280;23738;50.422;18.758;2023-02-15T05:19:54;99999.77;;;2.27;81.95
37904;BME280;23738;50.422;18.758;2023-02-15T05:23:02;99996.68;;;2.22;82.00
37904;BME280;23738;50.422;18.758;2023-02-15T05:26:15;99994.84;;;2.21;82.19
37904;BME280;23738;50.422;18.758;2023-02-15T05:29:02;99996.21;;;2.24;81.92
37904;BME280;23738;50.422;18.758;2023-02-15T05:31:31;99993.58;;;2.24;82.14
37904;BME280;23738;50.422;18.758;2023-02-15T05:33:59;99989.91;;;2.22;82.37
37904;BME280;23738;50.422;18.758;2023-02-15T05:37:26;99994.64;;;2.23;82.17
37904;BME280;23738;50.422;18.758;2023-02-15T05:40:13;99994.34;;;2.23;82.30
37904;BME280;23738;50.422;18.758;2023-02-15T05:43:21;99989.04;;;2.22;82.59
37904;BME280;23738;50.422;18.758;2023-02-15T05:45:51;99982.40;;;2.22;82.39
37904;BME280;23738;50.422;18.758;2023-02-15T05:48:39;99988.49;;;2.29;82.33
37904;BME280;23738;50.422;18.758;2023-02-15T05:51:08;99985.88;;;2.29;82.42
37904;BME280;23738;50.422;18.758;2023-02-15T05:53:37;99987.26;;;2.29;82.60
37904;BME280;23738;50.422;18.758;2023-02-15T05:56:07;99988.23;;;2.30;82.48
37904;BME280;23738;50.422;18.758;2023-02-15T05:58:36;99986.82;;;2.28;82.69
37904;BME280;23738;50.422;18.758;2023-02-15T06:01:09;99988.02;;;2.28;82.55
37904;BME280;23738;50.422;18.758;2023-02-15T06:03:37;99988.60;;;2.25;82.75
37904;BME280;23738;50.422;18.758;2023-02-15T06:06:25;99989.58;;;2.26;82.38
37904;BME280;23738;50.422;18.758;2023-02-15T06:09:34;99993.02;;;2.27;82.81
37904;BME280;23738;50.422;18.758;2023-02-15T06:12:21;99996.83;;;2.29;82.85
37904;BME280;23738;50.422;18.758;2023-02-15T06:14:49;99997.88;;;2.32;82.95
37904;BME280;23738;50.422;18.758;2023-02-15T06:17:36;100002.73;;;2.32;82.62
37904;BME280;23738;50.422;18.758;2023-02-15T06:20:22;100003.28;;;2.29;82.97
37904;BME280;23738;50.422;18.758;2023-02-15T06:22:50;100002.66;;;2.28;82.83
37904;BME280;23738;50.422;18.758;2023-02-15T06:25:17;100004.80;;;2.22;82.87
37904;BME280;23738;50.422;18.758;2023-02-15T06:28:05;100007.48;;;2.21;82.87
37904;BME280;23738;50.422;18.758;2023-02-15T06:31:25;100006.38;;;2.22;82.78
37904;BME280;23738;50.422;18.758;2023-02-15T06:33:52;100005.73;;;2.24;82.71
37904;BME280;23738;50.422;18.758;2023-02-15T06:36:27;100006.56;;;2.24;82.49
37904;BME280;23738;50.422;18.758;2023-02-15T06:38:55;100010.95;;;2.24;82.68
37904;BME280;23738;50.422;18.758;2023-02-15T06:41:23;100014.71;;;2.24;83.14
37904;BME280;23738;50.422;18.758;2023-02-15T06:44:16;100014.52;;;2.23;82.84
37904;BME280;23738;50.422;18.758;2023-02-15T06:47:23;100015.94;;;2.20;82.96
37904;BME280;23738;50.422;18.758;2023-02-15T06:50:29;100022.09;;;2.19;82.97
37904;BME280;23738;50.422;18.758;2023-02-15T06:53:37;100020.45;;;2.20;82.86
37904;BME280;23738;50.422;18.758;2023-02-15T06:56:44;100014.27;;;2.24;83.13
37904;BME280;23738;50.422;18.758;2023-02-15T06:59:53;100012.06;;;2.28;83.29
37904;BME280;23738;50.422;18.758;2023-02-15T07:02:41;100006.48;;;2.28;83.13
37904;BME280;23738;50.422;18.758;2023-02-15T07:05:28;100003.83;;;2.26;83.13
37904;BME280;23738;50.422;18.758;2023-02-15T07:08:35;99994.59;;;2.24;83.19
37904;BME280;23738;50.422;18.758;2023-02-15T07:11:42;99991.33;;;2.28;83.34
37904;BME280;23738;50.422;18.758;2023-02-15T07:14:27;99991.03;;;2.33;83.32
37904;BME280;23738;50.422;18.758;2023-02-15T07:17:02;99989.78;;;2.33;83.35
37904;BME280;23738;50.422;18.758;2023-02-15T07:19:30;99987.52;;;2.36;83.52
37904;BME280;23738;50.422;18.758;2023-02-15T07:21:57;99990.00;;;2.37;83.47
37904;BME280;23738;50.422;18.758;2023-02-15T07:24:25;99987.27;;;2.39;83.80
37904;BME280;23738;50.422;18.758;2023-02-15T07:26:53;99983.13;;;2.38;83.82
37904;BME280;23738;50.422;18.758;2023-02-15T07:29:20;99981.90;;;2.44;83.77
37904;BME280;23738;50.422;18.758;2023-02-15T07:31:48;99977.29;;;2.47;83.66
37904;BME280;23738;50.422;18.758;2023-02-15T07:34:15;99975.08;;;2.48;83.74
37904;BME280;23738;50.422;18.758;2023-02-15T07:36:43;99976.17;;;2.48;83.84
37904;BME280;23738;50.422;18.758;2023-02-15T07:39:30;99976.86;;;2.48;83.49
37904;BME280;23738;50.422;18.758;2023-02-15T07:42:00;99981.56;;;2.48;83.85
37904;BME280;23738;50.422;18.758;2023-02-15T07:44:27;99974.73;;;2.44;83.80
37904;BME280;23738;50.422;18.758;2023-02-15T07:46:55;99980.42;;;2.45;83.90
37904;BME280;23738;50.422;18.758;2023-02-15T07:49:30;99979.50;;;2.46;83.94
37904;BME280;23738;50.422;18.758;2023-02-15T07:52:01;99979.90;;;2.47;83.79
37904;BME280;23738;50.422;18.758;2023-02-15T07:54:29;99979.90;;;2.49;83.97
37904;BME280;23738;50.422;18.758;2023-02-15T07:57:17;99978.09;;;2.50;84.11
37904;BME280;23738;50.422;18.758;2023-02-15T08:00:42;99975.48;;;2.53;83.85
37904;BME280;23738;50.422;18.758;2023-02-15T08:03:32;99970.70;;;2.51;84.10
37904;BME280;23738;50.422;18.758;2023-02-15T08:06:00;99972.06;;;2.54;84.04
37904;BME280;23738;50.422;18.758;2023-02-15T08:08:52;99966.50;;;2.54;84.05
37904;BME280;23738;50.422;18.758;2023-02-15T08:11:41;99967.36;;;2.63;84.20
37904;BME280;23738;50.422;18.758;2023-02-15T08:14:10;99967.39;;;2.75;84.51
37904;BME280;23738;50.422;18.758;2023-02-15T08:16:40;99966.30;;;2.87;84.41
37904;BME280;23738;50.422;18.758;2023-02-15T08:19:37;99971.51;;;2.96;84.40
37904;BME280;23738;50.422;18.758;2023-02-15T08:22:45;99969.23;;;2.96;84.06
37904;BME280;23738;50.422;18.758;2023-02-15T08:25:12;99962.77;;;2.94;84.22
37904;BME280;23738;50.422;18.758;2023-02-15T08:27:44;99967.38;;;3.00;84.27
37904;BME280;23738;50.422;18.758;2023-02-15T08:30:14;99966.14;;;3.07;84.62
37904;BME280;23738;50.422;18.758;2023-02-15T08:32:57;99964.23;;;3.21;84.75
37904;BME280;23738;50.422;18.758;2023-02-15T08:35:25;99959.95;;;3.33;84.58
37904;BME280;23738;50.422;18.758;2023-02-15T08:38:13;99960.20;;;3.41;84.57
37904;BME280;23738;50.422;18.758;2023-02-15T08:40:41;99957.02;;;3.46;84.66
37904;BME280;23738;50.422;18.758;2023-02-15T08:43:08;99958.09;;;3.52;84.57
37904;BME280;23738;50.422;18.758;2023-02-15T08:45:56;99949.98;;;3.51;84.60
37904;BME280;23738;50.422;18.758;2023-02-15T08:48:44;99952.27;;;3.64;84.57
37904;BME280;23738;50.422;18.758;2023-02-15T08:51:14;99947.51;;;3.75;84.49
37904;BME280;23738;50.422;18.758;2023-02-15T08:53:44;99936.55;;;3.95;84.69
37904;BME280;23738;50.422;18.758;2023-02-15T08:56:12;99938.64;;;4.27;84.82
37904;BME280;23738;50.422;18.758;2023-02-15T08:58:39;99936.21;;;4.46;85.02
37904;BME280;23738;50.422;18.758;2023-02-15T09:01:31;99933.98;;;4.64;84.69
37904;BME280;23738;50.422;18.758;2023-02-15T09:04:01;99928.16;;;4.71;84.47
37904;BME280;23738;50.422;18.758;2023-02-15T09:06:31;99918.94;;;4.79;84.73
37904;BME280;23738;50.422;18.758;2023-02-15T09:08:58;99923.14;;;4.97;84.58
37904;BME280;23738;50.422;18.758;2023-02-15T09:11:42;99917.02;;;5.12;84.52
37904;BME280;23738;50.422;18.758;2023-02-15T09:14:12;99911.27;;;5.29;84.18
37904;BME280;23738;50.422;18.758;2023-02-15T09:16:43;99912.12;;;5.44;84.50
37904;BME280;23738;50.422;18.758;2023-02-15T09:19:12;99905.45;;;5.54;84.41
37904;BME280;23738;50.422;18.758;2023-02-15T09:21:40;99906.41;;;5.71;84.55
37904;BME280;23738;50.422;18.758;2023-02-15T09:24:10;99903.33;;;5.92;84.52
37904;BME280;23738;50.422;18.758;2023-02-15T09:26:58;99899.65;;;6.12;84.80
37904;BME280;23738;50.422;18.758;2023-02-15T09:29:25;99896.00;;;6.36;84.64
37904;BME280;23738;50.422;18.758;2023-02-15T09:31:53;99896.61;;;6.60;84.51
37904;BME280;23738;50.422;18.758;2023-02-15T09:34:46;99895.08;;;6.71;84.35
37904;BME280;23738;50.422;18.758;2023-02-15T09:37:13;99888.95;;;6.78;84.02
37904;BME280;23738;50.422;18.758;2023-02-15T09:39:43;99890.41;;;6.93;83.87
37904;BME280;23738;50.422;18.758;2023-02-15T09:42:42;99887.90;;;7.14;84.10
37904;BME280;23738;50.422;18.758;2023-02-15T09:45:26;99883.20;;;7.33;83.67
37904;BME280;23738;50.422;18.758;2023-02-15T09:50:53;99866.92;;;7.69;83.29
37904;BME280;23738;50.422;18.758;2023-02-15T09:53:33;99872.84;;;7.88;83.47
37904;BME280;23738;50.422;18.758;2023-02-15T09:56:09;99869.48;;;8.04;83.10
37904;BME280;23738;50.422;18.758;2023-02-15T09:58:48;99863.86;;;8.13;82.37
37904;BME280;23738;50.422;18.758;2023-02-15T10:01:26;99863.14;;;8.27;82.65
37904;BME280;23738;50.422;18.758;2023-02-15T10:04:12;99864.95;;;8.37;82.19
37904;BME280;23738;50.422;18.758;2023-02-15T10:06:43;99855.23;;;8.45;82.16
37904;BME280;23738;50.422;18.758;2023-02-15T10:09:37;99854.14;;;8.59;82.26
37904;BME280;23738;50.422;18.758;2023-02-15T10:12:35;99849.71;;;8.77;81.69
37904;BME280;23738;50.422;18.758;2023-02-15T10:15:17;99849.67;;;8.81;81.02
37904;BME280;23738;50.422;18.758;2023-02-15T10:17:58;99849.58;;;8.87;81.07
37904;BME280;23738;50.422;18.758;2023-02-15T10:20:33;99844.08;;;8.99;80.99
37904;BME280;23738;50.422;18.758;2023-02-15T10:23:18;99846.45;;;9.13;81.07
37904;BME280;23738;50.422;18.758;2023-02-15T10:25:53;99845.84;;;9.28;80.71
37904;BME280;23738;50.422;18.758;2023-02-15T10:28:29;99844.46;;;9.38;80.46
37904;BME280;23738;50.422;18.758;2023-02-15T10:31:04;99843.45;;;9.52;80.48
37904;BME280;23738;50.422;18.758;2023-02-15T10:33:40;99839.92;;;9.66;80.29
37904;BME280;23738;50.422;18.758;2023-02-15T10:36:20;99841.76;;;9.80;79.76
37904;BME280;23738;50.422;18.758;2023-02-15T10:38:58;99834.86;;;9.91;79.59
37904;BME280;23738;50.422;18.758;2023-02-15T10:41:36;99830.30;;;9.97;79.08
37904;BME280;23738;50.422;18.758;2023-02-15T10:44:17;99829.72;;;10.05;78.57
37904;BME280;23738;50.422;18.758;2023-02-15T10:47:15;99831.70;;;10.16;78.96
37904;BME280;23738;50.422;18.758;2023-02-15T10:49:59;99826.64;;;10.32;78.91
37904;BME280;23738;50.422;18.758;2023-02-15T10:52:42;99819.48;;;10.46;77.08
37904;BME280;23738;50.422;18.758;2023-02-15T10:55:21;99819.95;;;10.50;77.93
37904;BME280;23738;50.422;18.758;2023-02-15T10:57:59;99816.60;;;10.57;77.83
37904;BME280;23738;50.422;18.758;2023-02-15T11:00:36;99814.30;;;10.69;77.62
37904;BME280;23738;50.422;18.758;2023-02-15T11:03:19;99812.27;;;10.84;77.69
37904;BME280;23738;50.422;18.758;2023-02-15T11:05:58;99801.16;;;10.89;76.55
37904;BME280;23738;50.422;18.758;2023-02-15T11:08:31;99795.52;;;10.93;76.83
37904;BME280;23738;50.422;18.758;2023-02-15T11:11:02;99794.88;;;11.05;75.30
37904;BME280;23738;50.422;18.758;2023-02-15T11:13:34;99789.60;;;11.11;76.15
37904;BME280;23738;50.422;18.758;2023-02-15T11:16:10;99790.59;;;11.18;75.83
37904;BME280;23738;50.422;18.758;2023-02-15T11:18:43;99790.11;;;11.29;75.17
37904;BME280;23738;50.422;18.758;2023-02-15T11:21:19;99785.06;;;11.33;75.02
37904;BME280;23738;50.422;18.758;2023-02-15T11:23:47;99782.47;;;11.40;75.09
37904;BME280;23738;50.422;18.758;2023-02-15T11:26:19;99783.10;;;11.47;74.68
37904;BME280;23738;50.422;18.758;2023-02-15T11:28:51;99780.19;;;11.51;74.07
37904;BME280;23738;50.422;18.758;2023-02-15T11:31:22;99778.98;;;11.50;73.76
37904;BME280;23738;50.422;18.758;2023-02-15T11:33:54;99774.20;;;11.50;73.92
37904;BME280;23738;50.422;18.758;2023-02-15T11:36:25;99774.98;;;11.64;74.13
37904;BME280;23738;50.422;18.758;2023-02-15T11:38:59;99777.64;;;11.79;74.29
37904;BME280;23738;50.422;18.758;2023-02-15T11:41:31;99768.65;;;11.98;74.93
37904;BME280;23738;50.422;18.758;2023-02-15T11:44:06;99770.82;;;12.19;74.34
37904;BME280;23738;50.422;18.758;2023-02-15T11:46:34;99772.31;;;12.29;73.02
37904;BME280;23738;50.422;18.758;2023-02-15T11:49:23;99766.21;;;12.30;72.98
37904;BME280;23738;50.422;18.758;2023-02-15T11:51:52;99762.26;;;12.41;74.07
37904;BME280;23738;50.422;18.758;2023-02-15T11:54:23;99761.27;;;12.51;72.32
37904;BME280;23738;50.422;18.758;2023-02-15T11:56:53;99757.10;;;12.51;72.63
37904;BME280;23738;50.422;18.758;2023-02-15T11:59:29;99754.73;;;12.52;71.68
37904;BME280;23738;50.422;18.758;2023-02-15T12:01:59;99752.70;;;12.44;71.76
37904;BME280;23738;50.422;18.758;2023-02-15T12:04:29;99750.33;;;12.43;71.53
37904;BME280;23738;50.422;18.758;2023-02-15T12:07:01;99743.09;;;12.42;71.18
37904;BME280;23738;50.422;18.758;2023-02-15T12:09:34;99745.30;;;12.42;70.86
37904;BME280;23738;50.422;18.758;2023-02-15T12:12:24;99748.13;;;12.39;70.36
37904;BME280;23738;50.422;18.758;2023-02-15T12:14:53;99737.38;;;12.38;70.66
37904;BME280;23738;50.422;18.758;2023-02-15T12:17:24;99735.70;;;12.40;71.05
37904;BME280;23738;50.422;18.758;2023-02-15T12:19:54;99723.85;;;12.52;70.69
37904;BME280;23738;50.422;18.758;2023-02-15T12:22:25;99721.52;;;12.55;70.55
37904;BME280;23738;50.422;18.758;2023-02-15T12:24:55;99718.52;;;12.53;69.87
37904;BME280;23738;50.422;18.758;2023-02-15T12:27:26;99713.26;;;12.57;70.37
37904;BME280;23738;50.422;18.758;2023-02-15T12:29:56;99714.29;;;12.68;69.88
37904;BME280;23738;50.422;18.758;2023-02-15T12:32:27;99713.08;;;12.66;69.67
37904;BME280;23738;50.422;18.758;2023-02-15T12:35:01;99708.06;;;12.62;68.28
37904;BME280;23738;50.422;18.758;2023-02-15T12:37:31;99698.14;;;12.54;69.14
37904;BME280;23738;50.422;18.758;2023-02-15T12:40:11;99691.23;;;12.57;69.24
37904;BME280;23738;50.422;18.758;2023-02-15T12:42:45;99691.70;;;12.65;68.15
37904;BME280;23738;50.422;18.758;2023-02-15T12:45:26;99689.80;;;12.57;67.81
37904;BME280;23738;50.422;18.758;2023-02-15T12:48:14;99685.79;;;12.46;67.15
37904;BME280;23738;50.422;18.758;2023-02-15T12:50:44;99688.66;;;12.40;67.88
37904;BME280;23738;50.422;18.758;2023-02-15T12:53:16;99686.23;;;12.40;67.69
37904;BME280;23738;50.422;18.758;2023-02-15T12:55:56;99686.03;;;12.43;67.69
37904;BME280;23738;50.422;18.758;2023-02-15T12:58:25;99677.78;;;12.43;67.95
37904;BME280;23738;50.422;18.758;2023-02-15T13:01:10;99680.98;;;12.50;67.76
37904;BME280;23738;50.422;18.758;2023-02-15T13:03:50;99678.36;;;12.46;67.04
37904;BME280;23738;50.422;18.758;2023-02-15T13:06:21;99681.73;;;12.45;67.41
37904;BME280;23738;50.422;18.758;2023-02-15T13:08:50;99679.70;;;12.43;65.97
37904;BME280;23738;50.422;18.758;2023-02-15T13:11:23;99675.72;;;12.35;66.58
37904;BME280;23738;50.422;18.758;2023-02-15T13:13:55;99666.66;;;12.28;65.64
37904;BME280;23738;50.422;18.758;2023-02-15T13:16:30;99660.89;;;12.21;66.07
37904;BME280;23738;50.422;18.758;2023-02-15T13:19:02;99657.52;;;12.30;66.73
37904;BME280;23738;50.422;18.758;2023-02-15T13:21:33;99655.35;;;12.32;66.09
37904;BME280;23738;50.422;18.758;2023-02-15T13:24:07;99655.36;;;12.28;65.10
37904;BME280;23738;50.422;18.758;2023-02-15T13:26:42;99658.38;;;12.24;65.96
37904;BME280;23738;50.422;18.758;2023-02-15T13:29:17;99652.89;;;12.23;65.79
37904;BME280;23738;50.422;18.758;2023-02-15T13:31:45;99648.55;;;12.27;65.95
37904;BME280;23738;50.422;18.758;2023-02-15T13:34:17;99649.23;;;12.32;66.12
37904;BME280;23738;50.422;18.758;2023-02-15T13:36:53;99651.17;;;12.38;66.11
37904;BME280;23738;50.422;18.758;2023-02-15T13:39:29;99646.14;;;12.35;64.53
37904;BME280;23738;50.422;18.758;2023-02-15T13:42:02;99646.87;;;12.29;65.09
37904;BME280;23738;50.422;18.758;2023-02-15T13:45:00;99644.73;;;12.28;65.71
37904;BME280;23738;50.422;18.758;2023-02-15T13:47:34;99646.29;;;12.33;65.15
37904;BME280;23738;50.422;18.758;2023-02-15T13:50:21;99646.48;;;12.32;65.24
37904;BME280;23738;50.422;18.758;2023-02-15T13:53:01;99645.06;;;12.28;64.74
37904;BME280;23738;50.422;18.758;2023-02-15T13:55:42;99640.32;;;12.22;65.18
37904;BME280;23738;50.422;18.758;2023-02-15T13:58:30;99636.63;;;12.20;64.76
37904;BME280;23738;50.422;18.758;2023-02-15T14:01:10;99633.16;;;12.14;64.49
37904;BME280;23738;50.422;18.758;2023-02-15T14:03:58;99633.23;;;12.07;64.33